createdAt,value
2019-03-23T00:01:43.911Z,6.57
2019-03-23T00:04:12.972Z,5.53
2019-03-23T00:06:42.026Z,6.33
2019-03-23T00:09:11.364Z,5.77
2019-03-23T00:11:40.379Z,8.90
2019-03-23T00:14:09.411Z,15.43
2019-03-23T00:16:38.458Z,11.60
2019-03-23T00:19:07.593Z,9.70
2019-03-23T00:21:36.641Z,7.17
2019-03-23T00:24:06.644Z,5.23
2019-03-23T00:26:35.700Z,5.50
2019-03-23T00:29:04.701Z,6.97
2019-03-23T00:31:33.708Z,5.93
2019-03-23T00:34:02.801Z,5.60
2019-03-23T00:36:41.067Z,6.23
2019-03-23T00:39:02.560Z,6.83
2019-03-23T00:41:32.617Z,5.90
2019-03-23T00:44:01.638Z,5.30
2019-03-23T00:46:30.645Z,4.80
2019-03-23T00:48:59.688Z,4.83
2019-03-23T00:51:28.666Z,7.03
2019-03-23T00:53:57.712Z,6.27
2019-03-23T00:56:26.744Z,7.70
2019-03-23T00:58:55.767Z,9.23
2019-03-23T01:01:24.833Z,9.90
2019-03-23T01:03:53.865Z,8.93
2019-03-23T01:06:22.875Z,6.30
2019-03-23T01:08:51.930Z,7.00
2019-03-23T01:11:20.945Z,5.50
2019-03-23T01:13:50.003Z,6.37
2019-03-23T01:16:18.996Z,5.57
2019-03-23T01:18:48.013Z,5.50
2019-03-23T01:21:17.029Z,6.63
2019-03-23T01:23:46.040Z,5.73
2019-03-23T01:26:15.087Z,6.53
2019-03-23T01:28:44.058Z,5.77
2019-03-23T01:31:12.992Z,6.87
2019-03-23T01:33:42.043Z,8.03
2019-03-23T01:36:11.054Z,7.30
2019-03-23T01:38:40.072Z,9.33
2019-03-23T01:41:09.118Z,7.77
2019-03-23T01:43:38.147Z,8.97
2019-03-23T01:46:07.179Z,8.53
2019-03-23T01:48:36.235Z,7.60
2019-03-23T01:51:05.505Z,5.80
2019-03-23T01:53:34.593Z,6.50
2019-03-23T01:56:03.684Z,7.47
2019-03-23T01:58:32.720Z,12.23
2019-03-23T02:01:01.710Z,8.87
2019-03-23T02:03:30.829Z,10.07
2019-03-23T02:05:59.841Z,10.63
2019-03-23T02:08:28.893Z,11.40
2019-03-23T02:10:58.010Z,10.03
2019-03-23T02:13:27.065Z,6.80
2019-03-23T02:15:56.082Z,8.20
2019-03-23T02:18:25.127Z,9.70
2019-03-23T02:20:54.162Z,6.43
2019-03-23T02:23:23.166Z,8.07
2019-03-23T02:25:52.284Z,6.50
2019-03-23T02:28:21.293Z,8.90
2019-03-23T02:30:50.323Z,6.97
2019-03-23T02:33:19.421Z,8.07
2019-03-23T02:35:48.482Z,5.97
2019-03-23T02:38:17.503Z,8.63
2019-03-23T02:40:46.537Z,7.93
2019-03-23T02:43:15.652Z,7.47
2019-03-23T02:45:44.679Z,7.47
2019-03-23T02:48:13.673Z,8.30
2019-03-23T02:50:42.698Z,9.77
2019-03-23T02:53:11.814Z,10.97
2019-03-23T02:55:40.841Z,9.60
2019-03-23T02:58:10.163Z,8.00
2019-03-23T03:00:39.261Z,8.40
2019-03-23T03:03:08.268Z,7.10
2019-03-23T03:05:37.300Z,8.33
2019-03-23T03:08:06.329Z,8.77
2019-03-23T03:10:36.958Z,9.77
2019-03-23T03:13:06.175Z,9.67
2019-03-23T03:15:35.217Z,11.90
2019-03-23T03:18:05.134Z,14.03
2019-03-23T03:20:34.181Z,8.70
2019-03-23T03:23:03.207Z,17.77
2019-03-23T03:25:32.254Z,26.37
2019-03-23T03:28:01.344Z,35.30
2019-03-23T03:30:30.395Z,33.40
2019-03-23T03:32:59.418Z,27.47
2019-03-23T03:35:28.516Z,32.17
2019-03-23T03:37:57.567Z,24.97
2019-03-23T03:40:26.754Z,25.63
2019-03-23T03:42:55.840Z,36.40
2019-03-23T03:45:26.691Z,42.23
2019-03-23T03:47:55.821Z,43.93
2019-03-23T03:50:24.860Z,39.70
2019-03-23T03:52:53.927Z,37.90
2019-03-23T03:55:22.954Z,34.50
2019-03-23T03:57:51.963Z,36.30
2019-03-23T04:00:20.982Z,37.03
2019-03-23T04:02:50.043Z,39.60
2019-03-23T04:05:19.055Z,35.57
2019-03-23T04:07:48.118Z,42.37
2019-03-23T04:10:18.158Z,49.57
2019-03-23T04:12:47.193Z,46.37
2019-03-23T04:15:16.294Z,48.20
2019-03-23T04:17:45.365Z,49.77
2019-03-23T04:20:14.439Z,53.73
2019-03-23T04:22:43.513Z,50.97
2019-03-23T04:25:12.737Z,43.23
2019-03-23T04:27:41.817Z,43.90
2019-03-23T04:30:11.461Z,45.67
2019-03-23T04:32:40.529Z,44.87
2019-03-23T04:35:09.724Z,48.47
2019-03-23T04:37:38.786Z,48.97
2019-03-23T04:40:09.694Z,48.87
2019-03-23T04:42:38.835Z,53.17
2019-03-23T04:45:09.037Z,61.23
2019-03-23T04:47:38.106Z,58.57
2019-03-23T04:50:08.973Z,60.43
2019-03-23T04:52:39.080Z,56.53
2019-03-23T04:55:09.677Z,55.53
2019-03-23T04:57:39.958Z,55.47
2019-03-23T05:00:11.643Z,57.30
2019-03-23T05:02:40.716Z,55.50
2019-03-23T05:05:09.740Z,51.73
2019-03-23T05:07:38.807Z,53.27
2019-03-23T05:10:08.178Z,46.60
2019-03-23T05:12:37.212Z,51.77
2019-03-23T05:15:06.802Z,54.07
2019-03-23T05:17:36.226Z,52.93
2019-03-23T05:20:06.966Z,51.87
2019-03-23T05:22:36.075Z,51.60
2019-03-23T05:25:05.571Z,51.57
2019-03-23T05:27:34.662Z,53.03
2019-03-23T05:30:05.297Z,50.60
2019-03-23T05:32:34.329Z,53.57
2019-03-23T05:35:04.234Z,52.30
2019-03-23T05:37:33.282Z,45.70
2019-03-23T05:40:02.306Z,53.60
2019-03-23T05:42:32.306Z,49.90
2019-03-23T05:45:01.360Z,53.53
2019-03-23T05:47:30.402Z,53.00
2019-03-23T05:50:00.517Z,50.47
2019-03-23T05:52:30.637Z,51.37
2019-03-23T05:54:59.759Z,47.67
2019-03-23T05:57:28.731Z,50.23
2019-03-23T05:59:57.785Z,51.90
2019-03-23T06:02:26.803Z,50.23
2019-03-23T06:04:55.861Z,50.47
2019-03-23T06:07:24.893Z,51.07
2019-03-23T06:09:53.954Z,50.33
2019-03-23T06:12:23.138Z,49.23
2019-03-23T06:14:52.216Z,54.43
2019-03-23T06:17:21.253Z,52.13
2019-03-23T06:19:50.299Z,49.80
2019-03-23T06:22:19.299Z,50.03
2019-03-23T06:24:48.343Z,50.23
2019-03-23T06:27:17.384Z,48.17
2019-03-23T06:29:47.297Z,47.20
2019-03-23T06:32:16.321Z,48.57
2019-03-23T06:34:45.402Z,46.50
2019-03-23T06:37:14.446Z,45.57
2019-03-23T06:39:43.484Z,46.53
2019-03-23T06:42:12.534Z,45.90
2019-03-23T06:44:41.647Z,43.60
2019-03-23T06:47:10.666Z,45.17
2019-03-23T06:49:39.692Z,47.80
2019-03-23T06:52:08.707Z,42.77
2019-03-23T06:54:37.753Z,45.87
2019-03-23T06:57:06.773Z,44.70
2019-03-23T06:59:35.837Z,44.13
2019-03-23T07:02:04.898Z,43.97
2019-03-23T07:04:33.945Z,44.33
2019-03-23T07:07:02.995Z,47.37
2019-03-23T07:09:32.088Z,43.83
2019-03-23T07:12:01.165Z,45.97
2019-03-23T07:14:30.221Z,47.47
2019-03-23T07:16:59.248Z,47.00
2019-03-23T07:19:28.323Z,46.57
2019-03-23T07:21:58.328Z,46.23
2019-03-23T07:24:27.409Z,43.57
2019-03-23T07:26:56.478Z,43.67
2019-03-23T07:29:25.521Z,45.17
2019-03-23T07:32:05.270Z,45.40
2019-03-23T07:34:25.184Z,45.73
2019-03-23T07:36:54.207Z,44.60
2019-03-23T07:39:28.161Z,45.40
2019-03-23T07:41:54.312Z,44.87
2019-03-23T07:44:23.361Z,44.17
2019-03-23T07:46:52.399Z,44.20
2019-03-23T07:49:21.433Z,46.07
2019-03-23T07:51:50.473Z,43.17
2019-03-23T07:54:19.605Z,42.10
2019-03-23T07:56:48.675Z,42.50
2019-03-23T07:59:17.753Z,45.07
2019-03-23T08:01:46.816Z,41.40
2019-03-23T08:04:15.862Z,41.93
2019-03-23T08:06:44.949Z,44.47
2019-03-23T08:09:20.345Z,45.57
2019-03-23T08:11:44.654Z,42.00
2019-03-23T08:14:13.691Z,44.33
2019-03-23T08:16:42.757Z,44.23
2019-03-23T08:19:11.738Z,46.37
2019-03-23T08:21:40.789Z,46.97
2019-03-23T08:24:09.818Z,44.90
2019-03-23T08:26:38.921Z,45.63
2019-03-23T08:29:07.932Z,46.23
2019-03-23T08:31:36.997Z,43.47
2019-03-23T08:34:06.020Z,43.60
2019-03-23T08:36:36.054Z,41.17
2019-03-23T08:39:06.060Z,41.43
2019-03-23T08:41:35.167Z,43.80
2019-03-23T08:44:04.253Z,43.33
2019-03-23T08:46:33.330Z,41.03
2019-03-23T08:49:02.532Z,42.87
2019-03-23T08:51:31.584Z,43.53
2019-03-23T08:54:00.642Z,41.40
2019-03-23T08:56:29.679Z,40.90
2019-03-23T08:58:58.695Z,39.47
2019-03-23T09:01:27.757Z,38.60
2019-03-23T09:03:56.798Z,40.03
2019-03-23T09:06:25.870Z,39.47
2019-03-23T09:08:54.942Z,38.63
2019-03-23T09:11:24.014Z,39.50
2019-03-23T09:13:53.126Z,40.50
2019-03-23T09:16:22.150Z,39.27
2019-03-23T09:18:51.171Z,38.63
2019-03-23T09:21:21.168Z,38.60
2019-03-23T09:23:50.357Z,39.20
2019-03-23T09:26:19.572Z,37.07
2019-03-23T09:28:48.627Z,37.67
2019-03-23T09:31:17.707Z,36.07
2019-03-23T09:33:46.744Z,36.57
2019-03-23T09:36:15.772Z,35.37
2019-03-23T09:38:44.801Z,35.90
2019-03-23T09:41:13.829Z,36.23
2019-03-23T09:43:42.898Z,35.83
2019-03-23T09:46:11.925Z,35.17
2019-03-23T09:48:40.958Z,36.33
2019-03-23T09:51:09.998Z,36.30
2019-03-23T09:53:39.104Z,36.57
2019-03-23T09:56:08.110Z,37.37
2019-03-23T09:58:37.220Z,37.83
2019-03-23T10:01:06.264Z,36.40
2019-03-23T10:03:35.290Z,35.23
2019-03-23T10:06:05.994Z,33.53
2019-03-23T10:08:36.244Z,34.90
2019-03-23T10:11:05.261Z,34.67
2019-03-23T10:13:34.382Z,34.30
2019-03-23T10:16:03.405Z,35.47
2019-03-23T10:18:32.541Z,33.23
2019-03-23T10:21:01.580Z,35.37
2019-03-23T10:23:30.625Z,33.93
2019-03-23T10:25:59.680Z,35.10
2019-03-23T10:28:29.865Z,32.77
2019-03-23T10:30:58.814Z,32.97
2019-03-23T10:33:27.847Z,35.07
2019-03-23T10:35:56.860Z,33.43
2019-03-23T10:38:25.924Z,35.57
2019-03-23T10:40:54.949Z,35.60
2019-03-23T10:43:23.991Z,36.73
2019-03-23T10:45:53.103Z,35.77
2019-03-23T10:48:22.215Z,33.53
2019-03-23T10:50:51.311Z,36.33
2019-03-23T10:53:23.184Z,36.57
2019-03-23T10:55:51.040Z,34.47
2019-03-23T10:58:20.055Z,34.43
2019-03-23T11:00:49.126Z,34.60
2019-03-23T11:03:18.155Z,35.77
2019-03-23T11:05:47.206Z,36.63
2019-03-23T11:08:16.203Z,37.13
2019-03-23T11:10:45.243Z,34.83
2019-03-23T11:13:14.270Z,36.23
2019-03-23T11:15:43.303Z,34.57
2019-03-23T11:18:13.308Z,35.30
2019-03-23T11:20:43.325Z,32.40
2019-03-23T11:23:12.326Z,33.83
2019-03-23T11:25:41.322Z,35.90
2019-03-23T11:28:10.340Z,35.43
2019-03-23T11:30:39.397Z,34.27
2019-03-23T11:33:08.417Z,34.47
2019-03-23T11:35:37.471Z,33.67
2019-03-23T11:38:06.591Z,33.37
2019-03-23T11:40:35.637Z,34.00
2019-03-23T11:43:04.649Z,35.77
2019-03-23T11:45:33.704Z,35.67
2019-03-23T11:48:02.726Z,35.93
2019-03-23T11:50:31.829Z,31.60
2019-03-23T11:53:00.907Z,32.23
2019-03-23T11:55:30.087Z,35.23
2019-03-23T11:57:59.090Z,32.77
2019-03-23T12:00:28.157Z,32.30
2019-03-23T12:02:57.185Z,30.40
2019-03-23T12:05:26.212Z,27.98
2019-03-23T12:07:55.306Z,24.72
2019-03-23T12:10:24.383Z,28.95
2019-03-23T12:12:53.418Z,29.52
2019-03-23T12:15:22.448Z,30.32
2019-03-23T12:17:51.526Z,31.85
2019-03-23T12:20:20.798Z,27.13
2019-03-23T12:22:49.850Z,31.60
2019-03-23T12:25:18.946Z,29.82
2019-03-23T12:27:47.953Z,31.27
2019-03-23T12:30:17.499Z,29.75
2019-03-23T12:32:46.562Z,29.10
2019-03-23T12:35:15.661Z,29.98
2019-03-23T12:37:44.725Z,30.40
2019-03-23T12:40:13.781Z,30.08
2019-03-23T12:42:42.804Z,30.10
2019-03-23T12:45:11.914Z,29.20
2019-03-23T12:47:40.985Z,29.42
2019-03-23T12:50:10.466Z,29.57
2019-03-23T12:52:39.513Z,29.82
2019-03-23T12:55:08.979Z,31.00
2019-03-23T12:57:38.024Z,33.13
2019-03-23T13:00:09.694Z,30.05
2019-03-23T13:02:38.774Z,30.27
2019-03-23T13:05:08.082Z,29.48
2019-03-23T13:07:37.105Z,29.80
2019-03-23T13:10:08.822Z,29.48
2019-03-23T13:12:37.880Z,29.23
2019-03-23T13:15:08.453Z,31.02
2019-03-23T13:17:37.526Z,31.85
2019-03-23T13:20:08.768Z,31.27
2019-03-23T13:22:38.037Z,30.20
2019-03-23T13:25:07.806Z,30.87
2019-03-23T13:27:57.655Z,31.73
2019-03-23T13:30:26.749Z,29.57
2019-03-23T13:32:55.792Z,30.97
2019-03-23T13:35:24.830Z,30.00
2019-03-23T13:37:54.640Z,29.60
2019-03-23T13:40:23.700Z,29.63
2019-03-23T13:42:52.678Z,29.40
2019-03-23T13:45:21.718Z,30.90
2019-03-23T13:47:50.757Z,31.07
2019-03-23T13:50:21.333Z,29.80
2019-03-23T13:52:50.378Z,29.83
2019-03-23T13:55:20.906Z,31.10
2019-03-23T13:57:49.960Z,31.57
2019-03-23T14:00:18.982Z,30.77
2019-03-23T14:02:48.037Z,31.13
2019-03-23T14:05:17.057Z,30.40
2019-03-23T14:07:46.097Z,30.03
2019-03-23T14:10:15.137Z,31.47
2019-03-23T14:12:44.188Z,32.03
2019-03-23T14:15:13.370Z,32.43
2019-03-23T14:17:42.415Z,32.60
2019-03-23T14:20:11.450Z,31.23
2019-03-23T14:22:40.507Z,31.87
2019-03-23T14:25:09.609Z,33.67
2019-03-23T14:27:38.762Z,31.97
2019-03-23T14:30:08.097Z,32.37
2019-03-23T14:32:37.138Z,31.17
2019-03-23T14:35:06.512Z,32.70
2019-03-23T14:37:35.601Z,32.37
2019-03-23T14:40:06.012Z,33.73
2019-03-23T14:42:35.329Z,34.53
2019-03-23T14:45:06.104Z,33.30
2019-03-23T14:47:35.103Z,34.33
2019-03-23T14:50:05.223Z,33.40
2019-03-23T14:52:34.275Z,34.20
2019-03-23T14:55:03.559Z,33.07
2019-03-23T14:57:32.553Z,34.20
2019-03-23T15:00:01.602Z,33.97
2019-03-23T15:02:31.785Z,33.93
2019-03-23T15:05:00.861Z,35.13
2019-03-23T15:07:29.869Z,33.00
2019-03-23T15:09:58.942Z,32.87
2019-03-23T15:12:28.000Z,33.70
2019-03-23T15:14:57.039Z,32.20
2019-03-23T15:17:26.129Z,32.27
2019-03-23T15:19:55.179Z,33.70
2019-03-23T15:22:24.217Z,33.70
2019-03-23T15:24:53.291Z,34.47
2019-03-23T15:27:22.311Z,34.20
2019-03-23T15:29:51.360Z,33.97
2019-03-23T15:32:20.386Z,32.40
2019-03-23T15:34:49.405Z,33.73
2019-03-23T15:37:18.872Z,34.67
2019-03-23T15:39:48.643Z,33.80
2019-03-23T15:42:24.777Z,35.10
2019-03-23T15:44:48.425Z,34.17
2019-03-23T15:47:17.462Z,35.87
2019-03-23T15:49:46.889Z,34.30
2019-03-23T15:52:16.445Z,34.20
2019-03-23T15:54:45.634Z,36.30
2019-03-23T15:57:14.673Z,34.17
2019-03-23T15:59:44.019Z,35.67
2019-03-23T16:02:13.049Z,34.60
2019-03-23T16:04:42.096Z,35.20
2019-03-23T16:07:11.124Z,34.00
2019-03-23T16:09:40.461Z,34.33
2019-03-23T16:12:09.517Z,34.07
2019-03-23T16:14:38.476Z,33.10
2019-03-23T16:17:07.497Z,33.00
2019-03-23T16:19:36.518Z,34.23
2019-03-23T16:22:05.607Z,34.23
2019-03-23T16:24:34.656Z,35.07
2019-03-23T16:27:03.763Z,32.77
2019-03-23T16:29:32.874Z,35.00
2019-03-23T16:32:01.895Z,35.30
2019-03-23T16:34:30.924Z,34.87
2019-03-23T16:36:59.934Z,35.77
2019-03-23T16:39:28.969Z,33.67
2019-03-23T16:41:57.985Z,34.83
2019-03-23T16:44:27.032Z,32.20
2019-03-23T16:46:56.087Z,31.10
2019-03-23T16:49:25.094Z,33.47
2019-03-23T16:51:54.109Z,31.17
2019-03-23T16:54:23.143Z,31.40
2019-03-23T16:56:52.189Z,31.67
2019-03-23T16:59:21.386Z,33.37
2019-03-23T17:01:50.563Z,31.33
2019-03-23T17:04:19.576Z,30.53
2019-03-23T17:06:48.606Z,31.50
2019-03-23T17:09:18.586Z,31.83
2019-03-23T17:11:47.598Z,33.03
2019-03-23T17:14:16.684Z,34.47
2019-03-23T17:16:45.720Z,35.70
2019-03-23T17:19:14.729Z,35.27
2019-03-23T17:21:43.788Z,35.73
2019-03-23T17:24:12.853Z,34.13
2019-03-23T17:26:41.896Z,37.67
2019-03-23T17:29:10.984Z,36.77
2019-03-23T17:31:41.107Z,37.10
2019-03-23T17:34:10.120Z,37.00
2019-03-23T17:36:39.151Z,39.23
2019-03-23T17:39:08.155Z,37.67
2019-03-23T17:41:37.366Z,37.17
2019-03-23T17:44:06.384Z,37.83
2019-03-23T17:46:35.499Z,36.87
2019-03-23T17:49:04.609Z,39.27
2019-03-23T17:51:33.706Z,38.10
2019-03-23T17:54:02.744Z,40.13
2019-03-23T17:56:31.803Z,37.90
2019-03-23T17:59:01.793Z,36.50
2019-03-23T18:01:30.933Z,35.80
2019-03-23T18:03:59.959Z,37.67
2019-03-23T18:06:29.086Z,35.60
2019-03-23T18:08:58.085Z,35.77
2019-03-23T18:11:27.154Z,36.13
2019-03-23T18:13:56.243Z,36.80
2019-03-23T18:16:25.293Z,34.00
2019-03-23T18:18:54.323Z,34.33
2019-03-23T18:21:23.366Z,35.20
2019-03-23T18:23:53.365Z,33.67
2019-03-23T18:26:22.395Z,32.83
2019-03-23T18:28:51.429Z,31.50
2019-03-23T18:31:20.437Z,32.13
2019-03-23T18:33:49.380Z,30.60
2019-03-23T18:36:19.373Z,29.00
2019-03-23T18:38:48.380Z,31.50
2019-03-23T18:41:17.440Z,30.00
2019-03-23T18:43:46.471Z,30.30
2019-03-23T18:46:15.513Z,28.43
2019-03-23T18:48:45.698Z,29.90
2019-03-23T18:51:14.797Z,29.83
2019-03-23T18:53:43.808Z,30.77
2019-03-23T18:56:12.868Z,30.90
2019-03-23T18:58:41.957Z,30.77
2019-03-23T19:01:11.096Z,28.77
2019-03-23T19:03:40.489Z,17.60
2019-03-23T19:06:09.609Z,11.83
2019-03-23T19:08:38.947Z,11.30
2019-03-23T19:11:07.948Z,12.87
2019-03-23T19:13:38.140Z,11.70
2019-03-23T19:16:07.286Z,10.53
2019-03-23T19:18:36.304Z,11.97
2019-03-23T19:21:05.428Z,10.60
2019-03-23T19:23:34.624Z,10.73
2019-03-23T19:26:03.756Z,8.87
2019-03-23T19:28:32.830Z,9.13
2019-03-23T19:31:01.821Z,9.20
2019-03-23T19:33:30.872Z,8.53
2019-03-23T19:35:59.871Z,8.10
2019-03-23T19:38:28.915Z,7.43
2019-03-23T19:40:57.910Z,8.20
2019-03-23T19:43:27.169Z,6.50
2019-03-23T19:45:57.243Z,7.70
2019-03-23T19:48:26.276Z,7.77
2019-03-23T19:50:55.277Z,8.97
2019-03-23T19:53:24.293Z,9.10
2019-03-23T19:55:53.314Z,9.97
2019-03-23T19:58:22.347Z,9.23
2019-03-23T20:00:51.361Z,10.17
2019-03-23T20:03:20.720Z,10.07
2019-03-23T20:05:49.868Z,10.87
2019-03-23T20:08:19.005Z,10.33
2019-03-23T20:10:48.040Z,11.43
2019-03-23T20:13:17.279Z,10.83
2019-03-23T20:15:46.379Z,11.23
2019-03-23T20:18:15.445Z,11.40
2019-03-23T20:20:44.470Z,11.63
2019-03-23T20:23:13.517Z,12.40
2019-03-23T20:25:42.598Z,11.87
2019-03-23T20:28:11.688Z,12.70
2019-03-23T20:30:40.698Z,12.73
2019-03-23T20:33:19.047Z,12.90
2019-03-23T20:35:40.542Z,12.37
2019-03-23T20:38:09.769Z,12.27
2019-03-23T20:40:38.766Z,13.70
2019-03-23T20:43:07.871Z,13.60
2019-03-23T20:45:36.885Z,13.83
2019-03-23T20:48:05.836Z,14.47
2019-03-23T20:50:34.855Z,14.27
2019-03-23T20:53:04.454Z,12.23
2019-03-23T20:55:33.494Z,13.47
2019-03-23T20:58:03.517Z,13.20
2019-03-23T21:00:32.629Z,12.43
2019-03-23T21:03:01.663Z,14.40
2019-03-23T21:05:34.296Z,13.17
2019-03-23T21:08:01.340Z,12.53
2019-03-23T21:10:31.337Z,12.27
2019-03-23T21:13:00.351Z,13.10
2019-03-23T21:15:29.439Z,12.07
2019-03-23T21:17:58.510Z,12.63
2019-03-23T21:20:27.563Z,12.33
2019-03-23T21:22:56.585Z,13.50
2019-03-23T21:25:25.710Z,12.87
2019-03-23T21:27:54.770Z,13.03
2019-03-23T21:30:23.905Z,14.27
2019-03-23T21:32:53.004Z,12.63
2019-03-23T21:35:22.353Z,13.33
2019-03-23T21:37:51.322Z,12.63
2019-03-23T21:40:45.259Z,14.10
2019-03-23T21:43:14.344Z,14.10
2019-03-23T21:45:43.386Z,12.70
2019-03-23T21:48:12.488Z,11.63
2019-03-23T21:50:47.561Z,12.87
2019-03-23T21:53:12.204Z,14.37
2019-03-23T21:55:41.289Z,13.77
2019-03-23T21:58:10.342Z,14.70
2019-03-23T22:00:40.431Z,13.53
2019-03-23T22:03:09.445Z,15.97
2019-03-23T22:05:38.475Z,14.07
2019-03-23T22:08:07.480Z,13.30
2019-03-23T22:10:36.517Z,12.13
2019-03-23T22:13:05.559Z,12.07
2019-03-23T22:15:34.585Z,10.63
2019-03-23T22:18:03.607Z,10.70
2019-03-23T22:20:33.694Z,9.97
2019-03-23T22:23:03.773Z,9.53
2019-03-23T22:25:32.793Z,8.37
2019-03-23T22:28:01.815Z,8.90
2019-03-23T22:30:31.123Z,7.47
2019-03-23T22:33:00.177Z,8.00
2019-03-23T22:35:29.223Z,8.93
2019-03-23T22:37:58.238Z,8.03
2019-03-23T22:40:28.304Z,6.93
2019-03-23T22:42:57.387Z,7.23
2019-03-23T22:45:26.448Z,7.50
2019-03-23T22:47:55.461Z,7.27
2019-03-23T22:50:24.540Z,6.77
2019-03-23T22:52:53.532Z,6.73
2019-03-23T22:55:22.545Z,7.43
2019-03-23T22:57:51.574Z,6.97
2019-03-23T23:00:23.726Z,6.63
2019-03-23T23:02:54.378Z,7.23
2019-03-23T23:05:23.394Z,5.67
2019-03-23T23:07:52.412Z,5.83
2019-03-23T23:10:21.466Z,6.33
2019-03-23T23:12:50.505Z,5.50
2019-03-23T23:15:19.521Z,6.90
2019-03-23T23:17:48.528Z,5.97
2019-03-23T23:20:17.577Z,5.97
2019-03-23T23:22:46.651Z,5.23
2019-03-23T23:25:15.691Z,5.33
2019-03-23T23:27:44.708Z,5.80
2019-03-23T23:30:13.892Z,5.87
2019-03-23T23:32:42.921Z,5.23
2019-03-23T23:35:12.157Z,5.10
2019-03-23T23:37:42.164Z,6.10
2019-03-23T23:40:11.456Z,4.90
2019-03-23T23:42:40.476Z,5.13
2019-03-23T23:45:15.180Z,6.67
2019-03-23T23:47:40.464Z,5.00
2019-03-23T23:50:09.690Z,5.63
2019-03-23T23:52:38.741Z,4.90
2019-03-23T23:55:07.922Z,5.43
2019-03-23T23:57:36.953Z,4.73
